createdAt,value
2018-02-04T00:00:52.670Z,3.14
2018-02-04T00:05:53.991Z,3.10
2018-02-04T00:10:55.331Z,3.03
2018-02-04T00:15:57.445Z,3.04
2018-02-04T00:20:58.763Z,3.13
2018-02-04T00:26:00.067Z,3.09
2018-02-04T00:31:01.434Z,3.08
2018-02-04T00:36:02.930Z,3.04
2018-02-04T00:41:04.275Z,3.09
2018-02-04T00:46:06.406Z,3.16
2018-02-04T00:51:07.747Z,3.12
2018-02-04T00:56:09.096Z,3.00
2018-02-04T01:01:10.614Z,3.11
2018-02-04T01:06:11.942Z,3.13
2018-02-04T01:11:13.276Z,3.05
2018-02-04T01:16:14.642Z,3.05
2018-02-04T01:21:16.687Z,3.10
2018-02-04T01:26:18.035Z,2.99
2018-02-04T01:31:19.623Z,3.08
2018-02-04T01:36:20.957Z,3.02
2018-02-04T01:41:22.298Z,2.97
2018-02-04T01:46:23.630Z,3.02
2018-02-04T01:51:24.947Z,3.07
2018-02-04T01:56:26.326Z,2.97
2018-02-04T02:01:27.758Z,2.90
2018-02-04T02:06:29.803Z,2.99
2018-02-04T02:11:31.195Z,2.91
2018-02-04T02:16:32.629Z,3.04
2018-02-04T02:21:34.016Z,3.20
2018-02-04T02:26:35.368Z,3.18
2018-02-04T02:31:36.717Z,3.21
2018-02-04T02:36:38.076Z,3.09
2018-02-04T02:41:39.447Z,3.04
2018-02-04T02:46:41.500Z,3.12
2018-02-04T02:51:43.583Z,3.06
2018-02-04T02:56:44.967Z,3.07
2018-02-04T03:01:46.307Z,2.93
2018-02-04T03:06:47.639Z,2.97
2018-02-04T03:11:48.989Z,3.02
2018-02-04T03:16:50.354Z,3.03
2018-02-04T03:21:52.415Z,3.07
2018-02-04T03:26:53.790Z,2.96
2018-02-04T03:31:55.133Z,3.21
2018-02-04T03:36:56.506Z,3.15
2018-02-04T03:41:57.866Z,3.16
2018-02-04T03:46:59.207Z,3.11
2018-02-04T03:52:00.552Z,3.11
2018-02-04T03:57:01.967Z,3.18
2018-02-04T04:02:03.347Z,3.08
2018-02-04T04:07:04.726Z,3.29
2018-02-04T04:12:06.064Z,3.28
2018-02-04T04:17:07.546Z,3.14
2018-02-04T04:22:09.628Z,3.10
2018-02-04T04:27:10.964Z,3.08
2018-02-04T04:32:12.278Z,3.10
2018-02-04T04:37:13.632Z,3.24
2018-02-04T04:42:14.933Z,3.34
2018-02-04T04:47:16.987Z,3.35
2018-02-04T04:52:18.350Z,3.33
2018-02-04T04:57:19.687Z,3.47
2018-02-04T05:02:21.171Z,3.49
2018-02-04T05:07:22.540Z,3.39
2018-02-04T05:12:23.881Z,3.36
2018-02-04T05:17:25.170Z,3.23
2018-02-04T05:22:27.238Z,3.36
2018-02-04T05:27:28.598Z,3.36
2018-02-04T05:32:29.923Z,3.37
2018-02-04T05:37:31.250Z,3.40
2018-02-04T05:42:32.581Z,3.41
2018-02-04T05:47:33.901Z,3.46
2018-02-04T05:52:35.246Z,3.46
2018-02-04T05:57:36.616Z,3.34
2018-02-04T06:02:38.683Z,3.34
2018-02-04T06:07:40.009Z,3.30
2018-02-04T06:12:42.071Z,3.30
2018-02-04T06:17:43.453Z,3.31
2018-02-04T06:22:44.824Z,3.26
2018-02-04T06:27:46.175Z,3.16
2018-02-04T06:32:48.326Z,3.11
2018-02-04T06:37:49.673Z,2.99
2018-02-04T06:42:51.745Z,2.85
2018-02-04T06:47:53.089Z,2.81
2018-02-04T06:52:54.444Z,2.75
2018-02-04T06:57:55.759Z,2.66
2018-02-04T07:02:57.887Z,2.57
2018-02-04T07:07:59.222Z,2.70
2018-02-04T07:13:00.572Z,2.95
2018-02-04T07:18:01.891Z,2.98
2018-02-04T07:23:03.297Z,2.89
2018-02-04T07:28:04.669Z,2.97
2018-02-04T07:33:06.022Z,3.03
2018-02-04T07:38:07.405Z,3.11
2018-02-04T07:43:08.766Z,3.34
2018-02-04T07:48:10.133Z,3.59
2018-02-04T07:53:11.470Z,3.57
2018-02-04T07:58:13.615Z,3.41
2018-02-04T08:03:14.995Z,3.59
2018-02-04T08:08:16.564Z,3.49
2018-02-04T08:13:18.735Z,3.72
2018-02-04T08:18:20.075Z,3.57
2018-02-04T08:23:21.431Z,3.57
2018-02-04T08:28:22.743Z,3.55
2018-02-04T08:33:24.820Z,3.75
2018-02-04T08:38:26.164Z,3.66
2018-02-04T08:43:27.486Z,3.49
2018-02-04T08:48:28.819Z,3.62
2018-02-04T08:53:30.147Z,3.78
2018-02-04T08:58:31.477Z,3.89
2018-02-04T09:03:32.808Z,3.59
2018-02-04T09:08:34.199Z,3.16
2018-02-04T09:13:35.568Z,2.93
2018-02-04T09:18:36.929Z,3.09
2018-02-04T09:23:38.303Z,3.03
2018-02-04T09:28:39.615Z,3.21
2018-02-04T09:33:40.977Z,3.43
2018-02-04T09:38:42.344Z,3.52
2018-02-04T09:43:43.659Z,3.93
2018-02-04T09:48:45.050Z,4.11
2018-02-04T09:53:46.444Z,3.95
2018-02-04T09:58:47.814Z,3.86
2018-02-04T10:03:49.144Z,3.97
2018-02-04T10:08:51.484Z,4.07
2018-02-04T10:13:52.803Z,4.35
2018-02-04T10:18:54.125Z,4.27
2018-02-04T10:23:55.498Z,4.08
2018-02-04T10:28:56.834Z,4.12
2018-02-04T10:33:58.175Z,4.17
2018-02-04T10:38:59.479Z,4.32
2018-02-04T10:44:00.810Z,4.43
2018-02-04T10:49:02.381Z,4.66
2018-02-04T10:54:04.450Z,4.55
2018-02-04T10:59:06.694Z,4.52
2018-02-04T11:04:08.794Z,4.59
2018-02-04T11:09:10.283Z,4.61
2018-02-04T11:14:11.604Z,4.65
2018-02-04T11:19:12.924Z,4.67
2018-02-04T11:24:14.366Z,4.79
2018-02-04T11:29:16.473Z,4.78
2018-02-04T11:34:18.520Z,5.03
2018-02-04T11:39:19.871Z,5.44
2018-02-04T11:44:21.218Z,5.19
2018-02-04T11:49:22.615Z,5.21
2018-02-04T11:54:24.014Z,5.14
2018-02-04T11:59:25.440Z,5.34
2018-02-04T12:04:26.758Z,5.36
2018-02-04T12:09:28.099Z,5.31
2018-02-04T12:14:29.428Z,5.16
2018-02-04T12:19:30.759Z,5.07
2018-02-04T12:24:32.084Z,5.06
2018-02-04T12:29:34.225Z,5.04
2018-02-04T12:34:35.572Z,4.88
2018-02-04T12:39:36.922Z,5.12
2018-02-04T12:44:39.106Z,5.11
2018-02-04T12:49:40.611Z,5.03
2018-02-04T12:54:41.958Z,5.29
2018-02-04T12:59:43.739Z,4.92
2018-02-04T13:04:45.185Z,4.97
2018-02-04T13:09:47.610Z,5.10
2018-02-04T13:14:49.100Z,5.09
2018-02-04T13:19:50.899Z,5.13
2018-02-04T13:24:52.343Z,5.10
2018-02-04T13:35:02.062Z,5.29
2018-02-04T13:40:04.691Z,5.22
2018-02-04T13:45:06.168Z,5.11
2018-02-04T13:50:07.595Z,5.05
2018-02-04T13:55:08.945Z,5.23
2018-02-04T14:00:12.142Z,5.16
2018-02-04T14:05:14.526Z,5.07
2018-02-04T14:10:16.020Z,5.00
2018-02-04T14:15:19.346Z,5.10
2018-02-04T14:20:20.730Z,5.16
2018-02-04T14:25:22.156Z,5.11
2018-02-04T14:30:24.251Z,5.01
2018-02-04T14:35:25.597Z,4.98
2018-02-04T14:40:26.924Z,5.02
2018-02-04T14:45:28.264Z,5.08
2018-02-04T14:50:29.607Z,4.82
2018-02-04T14:55:31.052Z,4.93
2018-02-04T15:00:32.383Z,4.94
2018-02-04T15:05:33.773Z,4.73
2018-02-04T15:10:35.090Z,4.58
2018-02-04T15:15:37.196Z,4.77
2018-02-04T15:20:39.344Z,4.74
2018-02-04T15:25:40.871Z,4.88
2018-02-04T15:30:42.213Z,4.83
2018-02-04T15:35:43.575Z,4.96
2018-02-04T15:40:45.632Z,4.82
2018-02-04T15:45:46.964Z,4.80
2018-02-04T15:50:49.040Z,4.73
2018-02-04T15:55:50.420Z,4.70
2018-02-04T16:00:51.761Z,4.75
2018-02-04T16:05:53.125Z,4.70
2018-02-04T16:10:54.481Z,4.63
2018-02-04T16:15:55.842Z,4.67
2018-02-04T16:20:57.188Z,4.77
2018-02-04T16:25:58.535Z,4.75
2018-02-04T16:30:59.902Z,4.63
2018-02-04T16:36:01.996Z,4.64
2018-02-04T16:41:03.354Z,4.60
2018-02-04T16:46:04.776Z,4.74
2018-02-04T16:51:06.206Z,4.61
2018-02-04T16:56:07.600Z,4.65
2018-02-04T17:01:08.960Z,4.76
2018-02-04T17:06:11.039Z,4.70
2018-02-04T17:11:12.375Z,4.76
2018-02-04T17:16:14.126Z,4.61
2018-02-04T17:21:15.510Z,4.62
2018-02-04T17:26:16.940Z,4.59
2018-02-04T17:31:18.370Z,4.46
2018-02-04T17:36:19.731Z,4.52
2018-02-04T17:41:21.087Z,4.60
2018-02-04T17:46:22.464Z,4.54
2018-02-04T17:51:23.823Z,4.51
2018-02-04T17:56:27.270Z,4.52
2018-02-04T18:01:28.911Z,4.43
2018-02-04T18:06:30.265Z,4.49
2018-02-04T18:11:31.623Z,4.42
2018-02-04T18:16:32.984Z,4.55
2018-02-04T18:21:34.332Z,4.58
2018-02-04T18:26:35.688Z,4.66
2018-02-04T18:31:37.048Z,4.62
2018-02-04T18:36:38.408Z,4.60
2018-02-04T18:41:39.763Z,4.50
2018-02-04T18:46:41.237Z,4.62
2018-02-04T18:51:43.318Z,4.60
2018-02-04T18:56:47.187Z,4.55
2018-02-04T19:01:49.365Z,4.72
2018-02-04T19:06:50.768Z,4.63
2018-02-04T19:11:52.196Z,4.70
2018-02-04T19:16:53.545Z,4.88
2018-02-04T19:21:54.972Z,4.94
2018-02-04T19:26:56.412Z,4.85
2018-02-04T19:31:57.794Z,4.88
2018-02-04T19:36:59.296Z,4.70
2018-02-04T19:42:00.639Z,4.64
2018-02-04T19:47:02.698Z,4.59
2018-02-04T19:52:04.028Z,4.53
2018-02-04T19:57:06.095Z,4.79
2018-02-04T20:02:07.423Z,4.47
2018-02-04T20:07:09.489Z,4.60
2018-02-04T20:12:10.818Z,4.56
2018-02-04T20:17:12.174Z,4.60
2018-02-04T20:22:13.526Z,4.49
2018-02-04T20:27:15.099Z,4.42
2018-02-04T20:32:34.862Z,4.59
2018-02-04T20:37:36.267Z,4.56
2018-02-04T20:42:37.551Z,4.58
2018-02-04T20:47:39.284Z,4.60
2018-02-04T20:52:41.382Z,4.52
2018-02-04T20:57:43.734Z,4.51
2018-02-04T21:02:45.847Z,4.27
2018-02-04T21:07:47.456Z,4.38
2018-02-04T21:12:48.850Z,4.45
2018-02-04T21:17:50.188Z,4.38
2018-02-04T21:22:52.388Z,4.49
2018-02-04T21:27:54.455Z,4.35
2018-02-04T21:32:55.780Z,4.62
2018-02-04T21:37:57.143Z,4.63
2018-02-04T21:42:58.473Z,4.61
2018-02-04T21:47:59.882Z,4.40
2018-02-04T21:53:01.226Z,4.51
2018-02-04T21:58:02.647Z,4.32
2018-02-04T22:03:04.068Z,4.33
2018-02-04T22:08:05.403Z,4.22
2018-02-04T22:13:06.825Z,4.20
2018-02-04T22:18:08.897Z,4.43
2018-02-04T22:23:10.294Z,4.18
2018-02-04T22:28:11.620Z,4.10
2018-02-04T22:33:12.938Z,4.28
2018-02-04T22:38:14.328Z,4.32
2018-02-04T22:43:15.631Z,4.27
2018-02-04T22:48:16.969Z,4.14
2018-02-04T22:53:18.524Z,4.17
2018-02-04T22:58:19.841Z,4.17
2018-02-04T23:03:21.897Z,4.38
2018-02-04T23:08:23.333Z,4.28
2018-02-04T23:13:24.731Z,4.21
2018-02-04T23:18:26.774Z,4.14
2018-02-04T23:23:28.166Z,4.20
2018-02-04T23:28:29.512Z,4.34
2018-02-04T23:33:30.848Z,4.31
2018-02-04T23:38:32.246Z,4.29
2018-02-04T23:43:33.583Z,4.24
2018-02-04T23:48:35.640Z,4.36
2018-02-04T23:53:37.126Z,4.21
2018-02-04T23:58:38.423Z,4.31
